Flight Track Log - Related Links

Times and Time Zones

All times are in EDT time to prevent confusion due to time zone crossing. See the SWA896 flight status page for this flight to view local times or setup timezone preferences in your user account.

Time Position Orientation Groundspeed Altitude Reporting Facility
EDT Latitude Longitude Course Direction KTS MPH feet Rate Location/Type
Mon 08:14:53 AM 42.9500 -78.7167 44° Northeast 175 201 1,400  Level Buffalo TRACON
Mon 08:15:59 AM 43.0000 -78.6500 44° Northeast 247 284 3,100 2,315 Climbing Buffalo TRACON
Mon 08:17:00 AM 43.0500 -78.6833 334° Northwest 236 272 6,300 2,740 Climbing Buffalo TRACON
Mon 08:18:06 AM 43.0500 -78.7833 270° West 261 300 8,900 2,200 Climbing Buffalo TRACON
Mon 08:19:00 AM 43.0500 -78.8667 270° West 280 322 10,700 1,722 Climbing Buffalo TRACON
Mon 08:19:54 AM 43.0500 -78.9833 270° West 357 411 12,000 1,895 Climbing Buffalo TRACON
Mon 08:20:54 AM 43.0500 -79.1333 270° West 377 434 14,300 2,350 Climbing Buffalo TRACON
Mon 08:21:54 AM 43.0500 -79.2667 270° West 385 443 16,700 2,350 Climbing Buffalo TRACON
Mon 08:22:54 AM 43.0500 -79.4167 270° West 391 450 19,000 2,000 Climbing Buffalo TRACON
Mon 08:24:00 AM 43.0500 -79.5833 270° West 401 461 20,900 1,773 Climbing Buffalo TRACON
Mon 08:25:06 AM 43.0500 -79.7667 270° West 418 481 22,900 1,762 Climbing Buffalo TRACON
Mon 08:26:06 AM 43.0833 -79.9167 287° West 434 499 24,600 1,541 Climbing Buffalo TRACON
Mon 08:26:55 AM 43.1167 -80.0167 295° West 430 495 25,700 1,211 Climbing Toronto Center
Mon 08:27:55 AM 43.1500 -80.1833 285° West 430 495 26,800 650 Climbing Toronto Center
Mon 08:28:55 AM 43.1833 -80.3500 285° West 430 495 27,000 300 Climbing Toronto Center
Mon 08:29:55 AM 43.2167 -80.5000 287° West 430 495 27,400 1,250 Climbing Toronto Center
Mon 08:30:55 AM 43.2500 -80.6667 285° West 430 495 29,500 1,750 Climbing Toronto Center
Mon 08:31:55 AM 43.2833 -80.8000 289° West 420 483 30,900 1,350 Climbing Toronto Center
Mon 08:32:55 AM 43.3000 -80.9667 278° West 410 472 32,200 1,150 Climbing Toronto Center
Mon 08:33:55 AM 43.3333 -81.1167 287° West 410 472 33,200 900 Climbing Toronto Center
Mon 08:34:55 AM 43.3667 -81.2667 287° West 410 472 34,000 400 Climbing Toronto Center
Mon 08:35:55 AM 43.4000 -81.4167 287° West 400 460 34,000  Level Toronto Center
Mon 08:36:55 AM 43.4333 -81.5667 287° West 400 460 34,000  Level Toronto Center
Mon 08:37:55 AM 43.4500 -81.7000 280° West 400 460 34,000  Level Toronto Center
Mon 08:38:55 AM 43.4833 -81.8667 285° West 400 460 34,000  Level Toronto Center
Mon 08:39:55 AM 43.5000 -82.0000 280° West 390 449 34,000  Level Toronto Center
Mon 08:40:55 AM 43.5333 -82.1333 289° West 380 437 34,000  Level Toronto Center
Mon 08:41:55 AM 43.5667 -82.2833 287° West 380 437 34,000 800 Level Toronto Center
Mon 08:42:55 AM 43.6000 -82.4167 289° West 370 426 35,600 1,000 Climbing Toronto Center
Mon 08:43:55 AM 43.6167 -82.5500 280° West 350 403 36,000 200 Climbing Toronto Center
Mon 08:44:55 AM 43.6333 -82.6667 281° West 350 403 36,000  Level Toronto Center
Mon 08:45:55 AM 43.6667 -82.8167 287° West 350 403 36,000  Level Toronto Center
Mon 08:46:55 AM 43.6833 -82.9333 281° West 350 403 36,000  Level Toronto Center
Mon 08:47:55 AM 43.7167 -83.0667 289° West 350 403 36,000  Level Toronto Center
Mon 08:49:11 AM 43.7539 -83.2214 288° West 352 405 36,000  Level Minneapolis Center
Mon 08:50:12 AM 43.7786 -83.3497 285° West 349 402 36,000  Level Minneapolis Center
Mon 08:51:13 AM 43.8067 -83.5053 284° West 348 400 36,000  Level Minneapolis Center
Mon 08:52:15 AM 43.8289 -83.6331 284° West 345 397 36,000  Level Minneapolis Center
Mon 08:53:16 AM 43.8522 -83.7614 284° West 345 397 36,000  Level Minneapolis Center
Mon 08:54:17 AM 43.8758 -83.8894 284° West 345 397 36,000  Level Minneapolis Center
Mon 08:55:19 AM 43.8986 -84.0181 284° West 344 396 36,000  Level Minneapolis Center
Mon 08:56:20 AM 43.9214 -84.1489 284° West 348 400 36,000  Level Minneapolis Center
Mon 08:57:21 AM 43.9447 -84.2803 284° West 350 403 36,000  Level Minneapolis Center
Mon 08:58:23 AM 43.9675 -84.4125 284° West 353 406 36,000  Level Minneapolis Center
Mon 08:59:24 AM 43.9928 -84.5556 284° West 354 407 36,000  Level Minneapolis Center
Mon 09:00:25 AM 44.0161 -84.6894 284° West 357 411 36,000  Level Minneapolis Center
Mon 09:01:28 AM 44.0433 -84.8511 283° West 358 412 36,000  Level Minneapolis Center
Mon 09:02:29 AM 44.0661 -84.9881 283° West 362 417 36,000  Level Minneapolis Center
Mon 09:03:31 AM 44.0847 -85.0978 283° West 363 418 36,000  Level Minneapolis Center
Mon 09:04:32 AM 44.1119 -85.2611 283° West 362 417 36,000  Level Minneapolis Center
Mon 09:05:33 AM 44.1347 -85.3992 283° West 365 420 36,000  Level Minneapolis Center
Mon 09:06:35 AM 44.1581 -85.5383 283° West 368 423 36,000  Level Minneapolis Center
Mon 09:07:36 AM 44.1797 -85.6733 283° West 362 417 36,000  Level Minneapolis Center
Mon 09:08:38 AM 44.2025 -85.8111 283° West 362 417 36,000  Level Minneapolis Center
Mon 09:09:39 AM 44.2233 -85.9469 282° West 359 413 36,000  Level Minneapolis Center
Mon 09:10:40 AM 44.2442 -86.0811 282° West 355 409 36,000  Level Minneapolis Center
Mon 09:11:42 AM 44.2653 -86.2167 282° West 355 409 36,000  Level Minneapolis Center
Mon 09:12:43 AM 44.2914 -86.3792 283° West 356 410 36,000  Level Minneapolis Center
Mon 09:13:44 AM 44.3114 -86.5139 282° West 353 406 36,000  Level Minneapolis Center
Mon 09:14:46 AM 44.3322 -86.6469 282° West 350 403 36,000  Level Minneapolis Center
Mon 09:15:47 AM 44.3517 -86.7789 282° West 347 399 36,000  Level Minneapolis Center
Mon 09:16:48 AM 44.3711 -86.9128 282° West 350 403 36,000  Level Minneapolis Center
Mon 09:17:50 AM 44.3917 -87.0472 282° West 352 405 36,000  Level Minneapolis Center
Mon 09:18:51 AM 44.4117 -87.1850 282° West 358 412 36,000  Level Minneapolis Center
Mon 09:19:52 AM 44.4347 -87.3394 282° West 355 409 36,000  Level Minneapolis Center
Mon 09:20:54 AM 44.4542 -87.4747 281° West 354 407 36,000  Level Minneapolis Center
Mon 09:21:55 AM 44.4711 -87.5911 282° West 357 411 36,000  Level Minneapolis Center
Mon 09:22:56 AM 44.4942 -87.7533 281° West 355 409 36,000  Level Minneapolis Center
Mon 09:23:58 AM 44.5131 -87.8897 281° West 357 411 36,000  Level Minneapolis Center
Mon 09:24:59 AM 44.5308 -88.0158 281° West 353 406 36,000  Level Minneapolis Center
Mon 09:26:00 AM 44.5489 -88.1522 281° West 356 410 36,000  Level Minneapolis Center
Mon 09:27:02 AM 44.5678 -88.2886 281° West 357 411 36,000  Level Minneapolis Center
Mon 09:28:03 AM 44.5906 -88.4508 281° West 363 418 36,000  Level Minneapolis Center
Mon 09:29:04 AM 44.6092 -88.5894 281° West 364 419 36,000  Level Minneapolis Center
Mon 09:30:06 AM 44.6278 -88.7306 281° West 365 420 36,000  Level Minneapolis Center
Mon 09:31:07 AM 44.6458 -88.8714 280° West 367 422 36,000  Level Minneapolis Center
Mon 09:32:08 AM 44.6661 -89.0075 282° West 363 418 36,000  Level Minneapolis Center
Mon 09:33:10 AM 44.6842 -89.1514 280° West 370 426 36,000  Level Minneapolis Center
Mon 09:34:11 AM 44.7028 -89.2944 280° West 371 427 36,000  Level Minneapolis Center
Mon 09:35:12 AM 44.7214 -89.4381 280° West 373 429 36,000  Level Minneapolis Center
Mon 09:36:14 AM 44.7431 -89.6072 280° West 375 432 36,000  Level Minneapolis Center
Mon 09:37:15 AM 44.7608 -89.7531 280° West 379 436 36,000  Level Minneapolis Center
Mon 09:38:16 AM 44.7794 -89.9006 280° West 384 442 36,000  Level Minneapolis Center
Mon 09:39:18 AM 44.7967 -90.0500 279° West 386 444 36,000  Level Minneapolis Center
Mon 09:40:19 AM 44.8156 -90.1986 280° West 387 445 36,000  Level Minneapolis Center
Mon 09:41:20 AM 44.8339 -90.3494 280° West 389 448 36,000  Level Minneapolis Center
Mon 09:42:22 AM 44.8508 -90.4908 280° West 386 444 36,000  Level Minneapolis Center
Mon 09:43:23 AM 44.8689 -90.6428 280° West 391 450 36,000  Level Minneapolis Center
Mon 09:44:24 AM 44.8889 -90.8247 279° West 392 451 36,000  Level Minneapolis Center
Mon 09:45:26 AM 44.9061 -90.9772 279° West 399 459 36,000  Level Minneapolis Center
Mon 09:46:27 AM 44.9239 -91.1369 279° West 395 455 36,000  Level Minneapolis Center
Mon 09:47:28 AM 44.9406 -91.2828 279° West 391 450 36,000  Level Minneapolis Center
Mon 09:48:30 AM 44.9592 -91.4442 279° West 398 458 36,000  Level Minneapolis Center
Mon 09:49:31 AM 44.9761 -91.6044 279° West 399 459 36,000  Level Minneapolis Center
Mon 09:50:32 AM 44.9928 -91.7525 279° West 396 456 36,000  Level Minneapolis Center
Mon 09:51:34 AM 45.0092 -91.9072 279° West 399 459 36,000  Level Minneapolis Center
Mon 09:52:35 AM 45.0258 -92.0639 279° West 404 465 36,000  Level Minneapolis Center
Mon 09:53:36 AM 45.0417 -92.2217 278° West 408 470 36,000  Level Minneapolis Center
Mon 09:54:38 AM 45.0578 -92.3811 278° West 411 473 36,000  Level Minneapolis Center
Mon 09:55:39 AM 45.0750 -92.5733 277° West 413 475 36,000  Level Minneapolis Center
Mon 09:56:41 AM 45.0894 -92.7342 277° West 416 479 36,000  Level Minneapolis Center
Mon 09:57:42 AM 45.1044 -92.8911 278° West 411 473 36,000  Level Minneapolis Center
Mon 09:58:44 AM 45.1183 -93.0469 277° West 407 468 36,000  Level Minneapolis Center
Mon 09:59:45 AM 45.1314 -93.2028 277° West 405 466 36,000  Level Minneapolis Center
Mon 10:00:47 AM 45.1444 -93.3572 277° West 401 461 36,000  Level Minneapolis Center
Mon 10:01:48 AM 45.1586 -93.5425 276° West 398 458 36,000  Level Minneapolis Center
Mon 10:02:50 AM 45.1700 -93.6942 276° West 394 453 36,000  Level Minneapolis Center
Mon 10:03:51 AM 45.1814 -93.8492 276° West 396 456 36,000  Level Minneapolis Center
Mon 10:04:53 AM 45.1919 -94.0050 276° West 398 458 36,000  Level Minneapolis Center
Mon 10:05:54 AM 45.2031 -94.1592 276° West 396 456 36,000  Level Minneapolis Center
Mon 10:06:56 AM 45.2136 -94.3147 276° West 399 459 36,000  Level Minneapolis Center
Mon 10:07:57 AM 45.2264 -94.5011 276° West 399 459 36,000  Level Minneapolis Center
Mon 10:08:59 AM 45.2364 -94.6572 275° West 400 460 36,000  Level Minneapolis Center
Mon 10:10:00 AM 45.2467 -94.8239 275° West 400 460 36,000  Level Minneapolis Center
Mon 10:11:02 AM 45.2567 -94.9794 275° West 398 458 36,000  Level Minneapolis Center
Mon 10:12:04 AM 45.2667 -95.1342 275° West 397 457 36,000  Level Minneapolis Center
Mon 10:13:05 AM 45.2753 -95.2900 275° West 397 457 36,000  Level Minneapolis Center
Mon 10:14:07 AM 45.2850 -95.4456 275° West 397 457 36,000  Level Minneapolis Center
Mon 10:15:08 AM 45.2933 -95.6017 274° West 399 459 36,000  Level Minneapolis Center
Mon 10:16:10 AM 45.3025 -95.7592 275° West 402 463 36,000  Level Minneapolis Center
Mon 10:17:12 AM 45.3133 -95.9478 275° West 401 461 36,000  Level Minneapolis Center
Mon 10:18:13 AM 45.3211 -96.1050 274° West 401 461 36,000  Level Minneapolis Center
Mon 10:19:15 AM 45.3306 -96.2631 275° West 404 465 36,000  Level Minneapolis Center
Mon 10:20:16 AM 45.3381 -96.4197 274° West 401 461 36,000  Level Minneapolis Center
Mon 10:21:18 AM 45.3450 -96.5764 274° West 401 461 36,000  Level Minneapolis Center
Mon 10:22:20 AM 45.3522 -96.7339 274° West 401 461 36,000  Level Minneapolis Center
Mon 10:23:21 AM 45.3600 -96.8942 274° West 407 468 36,000  Level Minneapolis Center
Mon 10:24:23 AM 45.3678 -97.0856 273° West 407 468 36,000  Level Minneapolis Center
Mon 10:25:25 AM 45.3753 -97.2453 274° West 407 468 36,000  Level Minneapolis Center
Mon 10:26:26 AM 45.3819 -97.4058 273° West 408 470 36,000  Level Minneapolis Center
Mon 10:27:28 AM 45.3875 -97.5658 273° West 408 470 36,000  Level Minneapolis Center
Mon 10:28:29 AM 45.3942 -97.7250 273° West 406 467 36,000  Level Minneapolis Center
Mon 10:29:31 AM 45.4014 -97.8853 274° West 407 468 36,000  Level Minneapolis Center
Mon 10:30:33 AM 45.4075 -98.0628 273° West 400 460 36,000  Level Minneapolis Center
Mon 10:31:34 AM 45.4111 -98.2164 272° West 393 452 36,000  Level Minneapolis Center
Mon 10:32:36 AM 45.4150 -98.3708 272° West 391 450 36,000  Level Minneapolis Center
Mon 10:33:37 AM 45.3742 -98.5164 248° West 400 460 36,000  Level Minneapolis Center
Mon 10:34:39 AM 45.3333 -98.6622 248° West 398 458 36,000  Level Minneapolis Center
Mon 10:35:41 AM 45.2922 -98.8083 248° West 398 458 36,000  Level Minneapolis Center
Mon 10:36:42 AM 45.2411 -98.9858 248° West 403 464 36,000  Level Minneapolis Center
Mon 10:38:46 AM 45.1572 -99.2736 248° West 396 456 36,000  Level Minneapolis Center
Mon 10:39:47 AM 45.1142 -99.4169 247° West 395 455 36,000  Level Minneapolis Center
Mon 10:40:49 AM 45.0719 -99.5603 247° West 394 453 36,000  Level Minneapolis Center
Mon 10:41:51 AM 45.0294 -99.7042 247° West 394 453 36,000  Level Minneapolis Center
Mon 10:42:52 AM 44.9867 -99.8494 247° West 394 453 36,000  Level Minneapolis Center
Mon 10:43:54 AM 44.9433 -99.9936 247° West 388 447 36,000  Level Minneapolis Center
Mon 10:44:56 AM 44.8992 -100.1339 246° West 386 444 36,000  Level Minneapolis Center
Mon 10:45:57 AM 44.8567 -100.2744 247° West 387 445 36,000  Level Minneapolis Center
Mon 10:46:59 AM 44.8139 -100.4153 247° West 389 448 36,000  Level Minneapolis Center
Mon 10:48:01 AM 44.7608 -100.5856 246° West 394 453 36,000  Level Minneapolis Center
Mon 10:49:02 AM 44.7178 -100.7264 247° West 393 452 36,000  Level Minneapolis Center
Mon 10:50:04 AM 44.6733 -100.8672 246° West 393 452 36,000  Level Minneapolis Center
Mon 10:51:06 AM 44.6294 -101.0067 246° West 392 451 36,000  Level Minneapolis Center
Mon 10:52:07 AM 44.5856 -101.1456 246° West 391 450 36,000  Level Minneapolis Center
Mon 10:53:09 AM 44.5417 -101.2844 246° West 390 449 36,000  Level Minneapolis Center
Mon 10:54:11 AM 44.4978 -101.4228 246° West 389 448 36,000  Level Minneapolis Center
Mon 10:55:13 AM 44.4542 -101.5622 246° West 390 449 36,000  Level Minneapolis Center
Mon 10:55:59 AM 44.4156 -101.6714 244° Southwest 392 451 36,000  Level Denver Center
Mon 10:56:14 AM 44.4000 -101.7278 249° West 390 449 36,000  Level Minneapolis Center
Mon 10:57:01 AM 44.3717 -101.8108 245° Southwest 391 450 36,000  Level Denver Center
Mon 10:58:03 AM 44.3186 -101.9772 246° West 392 451 36,000  Level Denver Center
Mon 10:59:05 AM 44.2719 -102.1136 244° Southwest 391 450 36,000  Level Denver Center
Mon 11:00:07 AM 44.2286 -102.2519 246° West 389 448 36,000  Level Denver Center
Mon 11:01:09 AM 44.1828 -102.3861 245° Southwest 386 444 36,000  Level Denver Center
Mon 11:02:11 AM 44.1383 -102.5247 246° West 390 449 36,000  Level Denver Center
Mon 11:03:13 AM 44.0919 -102.6611 245° Southwest 390 449 36,000  Level Denver Center
Mon 11:04:15 AM 44.0461 -102.8008 246° West 395 455 36,000  Level Denver Center
Mon 11:05:17 AM 43.9917 -102.9636 245° Southwest 399 459 36,000  Level Denver Center
Mon 11:06:19 AM 43.9522 -103.0989 248° West 397 457 36,000  Level Denver Center
Mon 11:07:21 AM 43.9122 -103.2581 251° West 392 451 36,000  Level Denver Center
Mon 11:08:23 AM 43.8769 -103.3936 250° West 391 450 36,000  Level Denver Center
Mon 11:09:25 AM 43.8372 -103.5522 251° West 391 450 36,000  Level Denver Center
Mon 11:10:27 AM 43.8022 -103.6872 250° West 389 448 36,000  Level Denver Center
Mon 11:11:29 AM 43.7619 -103.8433 250° West 387 445 36,000  Level Denver Center
Mon 11:12:31 AM 43.7269 -103.9764 250° West 385 443 36,000  Level Denver Center
Mon 11:13:33 AM 43.6867 -104.1311 250° West 384 442 36,000  Level Denver Center
Mon 11:14:35 AM 43.6497 -104.2633 249° West 385 443 36,000  Level Denver Center
Mon 11:15:37 AM 43.6092 -104.4175 250° West 385 443 36,000  Level Denver Center
Mon 11:16:39 AM 43.5736 -104.5475 249° West 382 440 36,000  Level Denver Center
Mon 11:17:41 AM 43.5325 -104.7022 250° West 384 442 36,000  Level Denver Center
Mon 11:18:43 AM 43.4958 -104.8356 249° West 389 448 36,000  Level Denver Center
Mon 11:19:45 AM 43.4533 -104.9911 249° West 390 449 36,000  Level Denver Center
Mon 11:20:47 AM 43.4164 -105.1236 249° West 389 448 36,000  Level Denver Center
Mon 11:21:49 AM 43.3733 -105.2794 249° West 392 451 36,000  Level Denver Center
Mon 11:22:52 AM 43.3364 -105.4117 249° West 390 449 36,000  Level Denver Center
Mon 11:23:54 AM 43.2939 -105.5653 249° West 386 444 36,000  Level Denver Center
Mon 11:24:56 AM 43.2564 -105.6956 248° West 385 443 36,000  Level Denver Center
Mon 11:25:58 AM 43.2133 -105.8489 249° West 387 445 36,000  Level Denver Center
Mon 11:27:00 AM 43.1767 -105.9808 249° West 389 448 36,000  Level Denver Center
Mon 11:28:02 AM 43.1381 -106.1114 248° West 388 447 36,000  Level Denver Center
Mon 11:29:04 AM 43.0922 -106.2669 248° West 392 451 36,000  Level Denver Center
Mon 11:30:06 AM 43.0342 -106.3847 236° Southwest 390 449 36,000  Level Denver Center
Mon 11:31:08 AM 42.9636 -106.5208 235° Southwest 393 452 36,000  Level Denver Center
Mon 11:32:10 AM 42.9028 -106.6347 234° Southwest 388 447 36,000  Level Denver Center
Mon 11:33:12 AM 42.8314 -106.7678 234° Southwest 388 447 36,000  Level Denver Center
Mon 11:34:14 AM 42.7719 -106.8808 234° Southwest 385 443 36,000  Level Denver Center
Mon 11:35:16 AM 42.7014 -107.0117 234° Southwest 386 444 36,000  Level Denver Center
Mon 11:36:18 AM 42.6417 -107.1239 234° Southwest 385 443 36,000  Level Denver Center
Mon 11:37:20 AM 42.5783 -107.2400 233° Southwest 384 442 36,000  Level Denver Center
Mon 11:38:22 AM 42.5083 -107.3700 234° Southwest 384 442 36,000  Level Denver Center
Mon 11:38:56 AM 42.4681 -107.4436 233° Southwest 380 437 36,000  Level Salt Lake Center
Mon 11:39:58 AM 42.4072 -107.5550 234° Southwest 384 442 36,000  Level Salt Lake Center
Mon 11:41:00 AM 42.3475 -107.6653 234° Southwest 382 440 36,000  Level Salt Lake Center
Mon 11:42:02 AM 42.2769 -107.7931 233° Southwest 381 438 36,000  Level Salt Lake Center
Mon 11:43:04 AM 42.2164 -107.9039 234° Southwest 383 441 36,000  Level Salt Lake Center
Mon 11:44:06 AM 42.1456 -108.0325 233° Southwest 383 441 36,000  Level Salt Lake Center
Mon 11:45:08 AM 42.0844 -108.1428 233° Southwest 383 441 36,000  Level Salt Lake Center
Mon 11:46:10 AM 42.0139 -108.2725 234° Southwest 384 442 36,000  Level Salt Lake Center
Mon 11:47:12 AM 41.9517 -108.3825 233° Southwest 387 445 36,000  Level Salt Lake Center
Mon 11:48:14 AM 41.8775 -108.5100 232° Southwest 389 448 36,000  Level Salt Lake Center
Mon 11:49:16 AM 41.8147 -108.6219 233° Southwest 392 451 36,000  Level Salt Lake Center
Mon 11:50:18 AM 41.7417 -108.7503 233° Southwest 389 448 36,000  Level Salt Lake Center
Mon 11:51:20 AM 41.6800 -108.8589 233° Southwest 386 444 36,000  Level Salt Lake Center
Mon 11:52:22 AM 41.6081 -108.9844 233° Southwest 383 441 36,000  Level Salt Lake Center
Mon 11:53:24 AM 41.5392 -109.0833 227° Southwest 385 443 36,000  Level Salt Lake Center
Mon 11:54:26 AM 41.4572 -109.1908 225° Southwest 383 441 36,000  Level Salt Lake Center
Mon 11:55:28 AM 41.3731 -109.3025 225° Southwest 388 447 36,000  Level Salt Lake Center
Mon 11:56:30 AM 41.3008 -109.3975 225° Southwest 386 444 36,000  Level Salt Lake Center
Mon 11:57:32 AM 41.2275 -109.4922 224° Southwest 385 443 36,000  Level Salt Lake Center
Mon 11:58:34 AM 41.1419 -109.6039 225° Southwest 386 444 36,000  Level Salt Lake Center
Mon 11:59:36 AM 41.0697 -109.6989 225° Southwest 383 441 36,000  Level Salt Lake Center
Mon 12:00:38 PM 40.9842 -109.8086 224° Southwest 384 442 36,000  Level Salt Lake Center
Mon 12:01:40 PM 40.9114 -109.9028 224° Southwest 383 441 36,000  Level Salt Lake Center
Mon 12:02:42 PM 40.8342 -110.0031 225° Southwest 382 440 36,000  Level Salt Lake Center
Mon 12:03:44 PM 40.7481 -110.1122 224° Southwest 384 442 36,000  Level Salt Lake Center
Mon 12:04:46 PM 40.6750 -110.2061 224° Southwest 383 441 36,000  Level Salt Lake Center
Mon 12:05:48 PM 40.5939 -110.3089 224° Southwest 381 438 36,000  Level Salt Lake Center
Mon 12:06:50 PM 40.5172 -110.4061 224° Southwest 378 435 36,000  Level Salt Lake Center
Mon 12:07:52 PM 40.4317 -110.5125 223° Southwest 379 436 36,000  Level Salt Lake Center
Mon 12:08:54 PM 40.3547 -110.6108 224° Southwest 375 432 36,000  Level Salt Lake Center
Mon 12:09:56 PM 40.2767 -110.7094 224° Southwest 375 432 36,000  Level Salt Lake Center
Mon 12:10:58 PM 40.2036 -110.8006 224° Southwest 379 436 36,000  Level Salt Lake Center
Mon 12:12:00 PM 40.1172 -110.9086 224° Southwest 385 443 36,000  Level Salt Lake Center
Mon 12:13:02 PM 40.0428 -111.0006 223° Southwest 387 445 36,000  Level Salt Lake Center
Mon 12:14:04 PM 39.9544 -111.1100 224° Southwest 393 452 36,000  Level Salt Lake Center
Mon 12:15:05 PM 39.8786 -111.2028 223° Southwest 393 452 36,000  Level Salt Lake Center
Mon 12:16:07 PM 39.7919 -111.3089 223° Southwest 386 444 36,000  Level Salt Lake Center
Mon 12:17:09 PM 39.7200 -111.4000 224° Southwest 381 438 36,000  Level Salt Lake Center
Mon 12:18:11 PM 39.6425 -111.4928 223° Southwest 381 438 36,000  Level Salt Lake Center
Mon 12:19:13 PM 39.5661 -111.5864 223° Southwest 380 437 36,000  Level Salt Lake Center
Mon 12:20:14 PM 39.4892 -111.6806 223° Southwest 380 437 36,000  Level Salt Lake Center
Mon 12:21:16 PM 39.4122 -111.7725 223° Southwest 379 436 36,000  Level Salt Lake Center
Mon 12:22:18 PM 39.3197 -111.8842 223° Southwest 380 437 36,000  Level Salt Lake Center
Mon 12:23:20 PM 39.2422 -111.9775 223° Southwest 382 440 36,000  Level Salt Lake Center
Mon 12:24:22 PM 39.1675 -112.0650 222° Southwest 378 435 36,000  Level Salt Lake Center
Mon 12:25:24 PM 39.0914 -112.1567 223° Southwest 376 433 36,000  Level Salt Lake Center
Mon 12:26:25 PM 39.0156 -112.2464 223° Southwest 373 429 36,000 -439 Level Salt Lake Center
Mon 12:27:27 PM 38.9261 -112.3539 223° Southwest 369 425 35,100 -919 Descending Salt Lake Center
Mon 12:28:29 PM 38.8492 -112.4425 222° Southwest 373 429 34,100 -919 Descending Salt Lake Center
Mon 12:29:31 PM 38.7722 -112.5331 223° Southwest 376 433 33,200 -878 Descending Salt Lake Center
Mon 12:30:32 PM 38.6983 -112.6231 224° Southwest 370 426 32,300 -585 Descending Salt Lake Center
Mon 12:31:34 PM 38.6244 -112.7064 221° Southwest 359 413 32,000 -145 Descending Salt Lake Center
Mon 12:32:36 PM 38.5525 -112.7908 223° Southwest 354 407 32,000  Level Salt Lake Center
Mon 12:33:38 PM 38.4814 -112.8731 222° Southwest 349 402 32,000  Level Salt Lake Center
Mon 12:34:40 PM 38.3958 -112.9708 222° Southwest 347 399 32,000  Level Salt Lake Center
Mon 12:35:41 PM 38.3136 -113.0428 214° Southwest 365 420 32,000  Level Salt Lake Center
Mon 12:36:43 PM 38.2219 -113.0992 206° Southwest 369 425 32,000  Level Salt Lake Center
Mon 12:37:45 PM 38.1297 -113.1561 206° Southwest 370 426 32,000  Level Salt Lake Center
Mon 12:38:46 PM 38.0361 -113.2122 205° Southwest 373 429 32,000  Level Salt Lake Center
Mon 12:39:48 PM 37.9436 -113.2697 206° Southwest 373 429 32,000  Level Salt Lake Center
Mon 12:40:50 PM 37.8314 -113.3381 206° Southwest 375 432 32,000  Level Salt Lake Center
Mon 12:41:52 PM 37.7361 -113.3956 206° Southwest 382 440 32,000  Level Salt Lake Center
Mon 12:42:53 PM 37.6406 -113.4525 205° Southwest 383 441 32,000 -244 Level Salt Lake Center
Mon 12:43:55 PM 37.5447 -113.5094 205° Southwest 384 442 31,500 -774 Descending Salt Lake Center
Mon 12:44:57 PM 37.4525 -113.5639 205° Southwest 374 430 30,400 -1,073 Descending Salt Lake Center
Mon 12:45:58 PM 37.3672 -113.6161 206° Southwest 354 407 29,300 -1,122 Descending Salt Lake Center
Mon 12:47:00 PM 37.2667 -113.6769 206° Southwest 339 390 28,100 -1,065 Descending Salt Lake Center
Mon 12:48:02 PM 37.1833 -113.7258 205° Southwest 334 384 27,100 -927 Descending Salt Lake Center
Mon 12:49:03 PM 37.0983 -113.7769 206° Southwest 336 387 26,200 -927 Descending Salt Lake Center
Mon 12:50:05 PM 37.0083 -113.8303 205° Southwest 351 404 25,200 -968 Descending Salt Lake Center
Mon 12:51:07 PM 36.9175 -113.8836 205° Southwest 359 413 24,200 -529 Descending Salt Lake Center
Mon 12:52:21 PM 36.7978 -113.9522 205° Southwest 359 413 24,000 -838 Descending Los Angeles Center
Mon 12:53:23 PM 36.7022 -114.0086 205° Southwest 353 406 22,300 -1,790 Descending Los Angeles Center
Mon 12:54:25 PM 36.6156 -114.0589 205° Southwest 345 397 20,300 -1,935 Descending Los Angeles Center
Mon 12:55:27 PM 36.5542 -114.1314 224° Southwest 313 360 18,300 -1,984 Descending Los Angeles Center
Mon 12:56:29 PM 36.5133 -114.2206 240° Southwest 297 342 16,200 -1,742 Descending Los Angeles Center
Mon 12:57:31 PM 36.4675 -114.3208 240° Southwest 296 341 14,700 -1,513 Descending Los Angeles Center
Mon 12:58:28 PM 36.4328 -114.4025 242° Southwest 285 328 13,200 -1,296 Descending Los Angeles Center
Mon 12:59:36 PM 36.3844 -114.4831 233° Southwest 278 320 12,000 -1,237 Descending Los Angeles Center
Mon 01:00:05 PM 36.3447 -114.5022 201° Southwest 280 322 11,200 -1,452 Descending Los Angeles Center
Mon 01:00:38 PM 36.3081 -114.5081 187° South 285 328 10,500 -1,475 Descending Los Angeles Center
Mon 01:01:06 PM 36.2686 -114.5200 194° South 280 322 9,700 -1,452 Descending Los Angeles Center
Mon 01:01:40 PM 36.2322 -114.5250 186° South 279 321 9,000 -1,475 Descending Los Angeles Center
Mon 01:02:07 PM 36.1925 -114.5378 195° South 279 321 8,200 -968 Descending Los Angeles Center
Mon 01:02:42 PM 36.1572 -114.5450 189° South 276 318 8,000 -218 Descending Los Angeles Center
Mon 01:03:02 PM 36.1356 -114.5731 226° Southwest 254 292 8,000  Level Los Angeles Center
Mon 01:03:44 PM 36.1167 -114.6242 245° Southwest 238 274 8,000  Level Los Angeles Center
Mon 01:04:09 PM 36.1042 -114.6556 244° Southwest 230 265 8,000  Level Los Angeles Center
Mon 01:04:46 PM 36.0875 -114.6944 242° Southwest 232 267 8,000  Level Los Angeles Center
Mon 01:05:10 PM 36.0744 -114.7269 244° Southwest 231 266 8,000 -677 Level Los Angeles Center
Mon 01:05:48 PM 36.0728 -114.7706 267° West 233 268 7,300 -985 Descending Los Angeles Center
Mon 01:06:17 PM 36.0739 -114.8122 272° West 238 274 6,900 -774 Descending Los Angeles Center
Mon 01:06:50 PM 36.0747 -114.8489 272° West 233 268 6,500 -1,180 Descending Los Angeles Center
Mon 01:07:18 PM 36.0728 -114.8953 267° West 227 261 5,700 -1,258 Descending Los Angeles Center
Mon 01:07:52 PM 36.0750 -114.9281 275° West 230 265 5,200 -1,180 Descending Los Angeles Center
Mon 01:08:19 PM 36.0744 -114.9719 269° West 219 252 4,500 -1,048 Descending Los Angeles Center
Mon 01:08:55 PM 36.0744 -115.0017 270° West 225 259 4,100 -896 Descending Los Angeles Center
Mon 01:09:26 PM 36.0739 -115.0386 269° West 177 204 3,500 -1,065 Descending Los Angeles Center
Mon 01:09:57 PM 36.0742 -115.0664 271° West 182 209 3,000 -857 Descending Los Angeles Center
Mon 01:10:15 PM 36.0725 -115.0817 262° West 154 177 2,800 -774 Descending Los Angeles Center
Mon 01:10:59 PM 36.0742 -115.1183 273° West 163 188 2,200 -818 Descending Los Angeles Center
Mon 01:12:00 PM 36.0667 -115.1500 219° Southwest  Level FlightAware Approximate
Mon 01:19:00 PM 36.0801 -115.1523 219° Southwest  Level Estimated

Login

Don't have an account? Register now (free) for customized features, flight alerts, and more!